Time;durP1;ratioP1;P1;durP2;ratioP2;P2;SDS_P1;SDS_P2;PMS_P1;PMS_P2;Temp;Humidity;BMP_temperature;BMP_pressure;BME280_temperature;BME280_humidity;BME280_pressure;Samples;Min_cycle;Max_cycle;Signal;HPM_P1;HPM_P2
2021/05/25 05:49:43;;;;;;;1.50;0.70;;;13.10;99.90;;;13.82;100.00;99992.38;4826564;29;20310;-61
2021/05/25 08:05:17;;;;;;;0.90;0.43;;;13.50;86.60;;;13.74;100.00;100029.25;4987709;28;20243;-61
2021/05/25 08:07:44;;;;;;;1.30;0.57;;;13.50;85.70;;;13.55;100.00;100027.94;4989726;28;20231;-59
2021/05/25 08:10:14;;;;;;;1.67;0.67;;;13.50;83.90;;;13.67;100.00;100021.09;4987878;28;20679;-60
2021/05/25 08:12:41;;;;;;;1.53;0.57;;;13.50;83.00;;;13.87;100.00;100054.47;4975924;28;20492;-61
2021/05/25 08:15:10;;;;;;;1.77;0.70;;;13.50;84.30;;;13.92;100.00;100052.06;5004456;28;20537;-61
2021/05/25 08:17:48;;;;;;;1.10;0.80;;;13.50;84.40;;;14.17;100.00;100055.31;5009886;28;20506;-61
2021/05/25 08:20:20;;;;;;;2.57;0.60;;;13.60;83.50;;;14.25;100.00;100055.22;5009327;28;20595;-62
2021/05/25 08:22:59;;;;;;;0.90;0.60;;;13.80;82.50;;;14.10;100.00;100032.84;5008600;28;20496;-61
2021/05/25 08:25:30;;;;;;;1.50;0.50;;;13.90;80.90;;;14.06;100.00;100034.28;5008542;28;20289;-61
2021/05/25 08:27:59;;;;;;;0.70;0.60;;;13.90;80.30;;;14.01;100.00;100034.81;5009059;28;21037;-61
2021/05/25 08:30:29;;;;;;;4.70;0.70;;;13.90;79.20;;;14.26;100.00;100024.59;5008146;28;20281;-66
2021/05/25 08:32:56;;;;;;;1.17;0.50;;;14.00;78.00;;;14.57;100.00;100032.44;5008937;28;20542;-61
2021/05/25 08:35:35;;;;;;;2.27;0.60;;;14.10;77.00;;;14.93;100.00;100045.03;5008782;28;20393;-61
2021/05/25 08:38:10;;;;;;;0.90;0.50;;;14.20;76.00;;;15.58;100.00;100054.78;5008562;28;20350;-62
2021/05/25 08:40:37;;;;;;;1.10;0.50;;;14.50;76.70;;;15.84;100.00;100056.81;5008158;28;20238;-62
2021/05/25 08:43:06;;;;;;;0.90;0.57;;;14.90;74.60;;;15.35;100.00;100046.88;5008246;28;20253;-62
2021/05/25 08:45:33;;;;;;;1.77;0.60;;;15.20;68.80;;;14.92;100.00;100068.47;5008803;28;20483;-61
2021/05/25 08:48:00;;;;;;;1.70;0.40;;;15.40;66.30;;;14.71;100.00;100080.03;5008293;28;20930;-61
2021/05/25 08:50:29;;;;;;;0.83;0.50;;;15.40;65.10;;;14.57;100.00;100091.69;5008204;28;20670;-62
2021/05/25 08:53:00;;;;;;;2.75;0.60;;;15.30;65.30;;;14.63;100.00;100088.22;5008613;28;20437;-61
2021/05/25 08:55:30;;;;;;;3.75;0.70;;;15.20;66.20;;;14.63;100.00;100076.63;4991366;28;20366;-61
2021/05/25 08:57:57;;;;;;;0.50;0.40;;;15.10;66.80;;;14.77;100.00;100074.91;5008750;28;20569;-62
2021/05/25 09:00:25;;;;;;;4.70;0.63;;;15.10;66.80;;;15.37;100.00;100079.84;5004438;28;20243;-62
2021/05/25 09:02:55;;;;;;;1.30;0.60;;;15.10;67.90;;;15.39;100.00;100073.25;5004443;28;20598;-62
2021/05/25 09:05:22;;;;;;;1.95;0.57;;;15.20;67.00;;;15.34;100.00;100056.81;5007450;28;20708;-62
2021/05/25 09:07:51;;;;;;;1.00;0.50;;;15.40;63.30;;;15.39;100.00;100064.34;5007615;28;20230;-62
2021/05/25 09:10:21;;;;;;;0.93;0.68;;;15.50;62.90;;;15.48;100.00;100073.09;5006171;28;20725;-62
2021/05/25 09:12:50;;;;;;;0.30;0.20;;;15.60;62.60;;;15.33;100.00;100059.72;5007155;28;20261;-62
2021/05/25 09:15:31;;;;;;;0.50;0.38;;;15.70;60.90;;;15.66;100.00;100065.41;5005777;28;20213;-62
2021/05/25 09:18:06;;;;;;;1.00;0.57;;;15.70;60.60;;;15.55;100.00;100056.00;5005241;28;20221;-61
2021/05/25 09:20:46;;;;;;;2.33;0.70;;;15.80;60.70;;;15.67;100.00;100051.72;5009681;28;20582;-61
2021/05/25 09:23:16;;;;;;;1.20;0.40;;;15.90;60.60;;;15.94;100.00;100076.19;5006456;28;20719;-62
2021/05/25 09:25:58;;;;;;;1.13;0.50;;;16.00;60.10;;;16.09;100.00;100079.59;5006159;28;20231;-61
2021/05/25 09:28:24;;;;;;;0.55;0.50;;;16.20;60.60;;;15.50;100.00;100066.50;5007607;28;20659;-61
2021/05/25 09:30:52;;;;;;;1.20;0.70;;;16.30;58.60;;;15.57;100.00;100072.81;4985421;28;20230;-62
2021/05/25 09:33:21;;;;;;;1.42;0.38;;;16.30;58.50;;;16.30;100.00;100063.31;5003989;28;20368;-62
2021/05/25 09:35:49;;;;;;;2.05;0.50;;;16.30;59.50;;;16.01;100.00;100079.75;5007132;28;20984;-61
2021/05/25 09:38:19;;;;;;;0.60;0.40;;;16.50;58.80;;;15.70;100.00;100074.78;5003206;28;20455;-62
2021/05/25 09:40:48;;;;;;;1.00;0.55;;;16.50;58.10;;;15.37;100.00;100074.47;5001928;28;20223;-62
2021/05/25 09:43:18;;;;;;;1.23;0.55;;;16.50;58.00;;;14.92;100.00;100067.63;4993402;28;20581;-62
2021/05/25 09:46:07;;;;;;;0.40;0.30;;;16.30;57.30;;;14.84;100.00;100073.13;5001221;28;20567;-62
2021/05/25 09:48:53;;;;;;;0.95;0.50;;;16.10;57.00;;;14.95;100.00;100092.34;5004550;28;20569;-61
2021/05/25 09:51:21;;;;;;;1.88;0.50;;;15.80;58.00;;;15.14;100.00;100093.53;5001445;28;20264;-62
2021/05/25 09:53:50;;;;;;;0.85;0.50;;;15.60;58.60;;;15.10;100.00;100079.63;4997906;28;20510;-62
2021/05/25 09:56:22;;;;;;;1.70;0.60;;;15.60;58.70;;;15.15;100.00;100076.34;5008522;28;20685;-61
2021/05/25 09:58:49;;;;;;;2.55;0.70;;;15.50;58.80;;;15.42;100.00;100069.34;5006871;28;20598;-62
2021/05/25 10:01:15;;;;;;;1.98;1.05;;;15.50;59.60;;;15.72;100.00;100065.44;5004925;28;20987;-61
2021/05/25 10:03:47;;;;;;;1.60;0.63;;;15.60;60.20;;;15.84;100.00;100064.91;5002604;28;20244;-61
2021/05/25 10:06:14;;;;;;;2.90;0.65;;;15.70;60.40;;;15.57;100.00;100072.81;5006661;28;20532;-62
2021/05/25 10:08:44;;;;;;;0.82;0.40;;;15.80;59.60;;;15.55;100.00;100077.56;4991126;28;20219;-61
2021/05/25 10:11:14;;;;;;;1.50;0.50;;;15.80;59.50;;;15.18;100.00;100067.88;5006149;28;20578;-62
2021/05/25 10:13:41;;;;;;;1.95;0.40;;;15.80;58.50;;;15.19;100.00;100061.47;4998676;28;20425;-62
2021/05/25 10:16:10;;;;;;;0.45;0.30;;;15.70;59.60;;;15.03;100.00;100048.25;5000974;28;20293;-62
2021/05/25 10:18:49;;;;;;;0.95;0.50;;;15.50;58.60;;;15.68;100.00;100066.06;5000932;28;20226;-61
2021/05/25 10:21:17;;;;;;;2.38;0.43;;;15.50;59.50;;;15.58;100.00;100068.25;5006007;28;20621;-61
2021/05/25 10:23:44;;;;;;;2.47;0.50;;;15.50;59.20;;;15.54;100.00;100039.97;5000899;28;20225;-62
2021/05/25 10:26:16;;;;;;;2.08;0.40;;;15.60;58.30;;;15.93;100.00;100056.47;5006311;28;20253;-61
2021/05/25 10:28:46;;;;;;;0.65;0.40;;;15.60;58.70;;;16.07;100.00;100049.28;5006921;28;20495;-62
2021/05/25 10:31:28;;;;;;;1.90;0.50;;;15.80;58.70;;;16.85;100.00;100047.94;5002359;28;20226;-62
2021/05/25 10:34:15;;;;;;;1.35;0.38;;;16.00;58.90;;;16.91;100.00;100041.72;5002668;28;20244;-62
2021/05/25 10:36:43;;;;;;;0.95;0.40;;;16.40;57.60;;;17.11;100.00;100039.03;5005645;28;20796;-62
2021/05/25 10:39:11;;;;;;;0.50;0.50;;;16.80;57.00;;;16.52;100.00;100043.25;5009644;28;20249;-62
2021/05/25 10:41:42;;;;;;;1.40;0.30;;;17.00;54.20;;;16.81;100.00;100047.50;5009713;28;20529;-61
2021/05/25 10:44:08;;;;;;;0.28;0.20;;;17.20;53.80;;;17.16;100.00;100032.00;5000437;28;20685;-62
2021/05/25 10:46:35;;;;;;;1.85;0.30;;;17.40;53.60;;;17.19;100.00;100028.00;4983608;28;20639;-62
2021/05/25 10:49:11;;;;;;;2.13;0.45;;;17.60;52.70;;;17.17;100.00;100032.81;5011699;28;20737;-62
2021/05/25 10:52:16;;;;;;;0.43;0.22;;;17.80;51.80;;;17.06;100.00;100018.03;4997751;28;20240;-62
2021/05/25 10:54:54;;;;;;;1.05;0.40;;;17.80;51.30;;;16.86;100.00;100038.78;5000430;28;20958;-62
2021/05/25 10:57:37;;;;;;;2.40;0.52;;;17.80;51.00;;;16.86;100.00;100033.41;4990832;28;20743;-62
2021/05/25 11:00:09;;;;;;;0.88;0.40;;;17.80;50.90;;;17.10;100.00;100031.97;5002208;28;20226;-62
2021/05/25 11:02:55;;;;;;;2.67;0.55;;;17.90;51.60;;;16.69;100.00;100032.13;5010454;28;20577;-62
2021/05/25 11:05:49;;;;;;;0.93;0.50;;;17.90;50.40;;;16.87;100.00;100025.09;5009824;28;20506;-62
2021/05/25 11:08:33;;;;;;;0.93;0.40;;;17.90;51.00;;;17.64;100.00;100030.97;5010004;28;20619;-62
2021/05/25 11:11:08;;;;;;;1.30;0.40;;;18.00;51.80;;;18.00;100.00;100030.47;5009490;28;20930;-61
2021/05/25 11:13:43;;;;;;;0.32;0.30;;;18.40;51.20;;;17.77;94.86;99982.25;5009689;28;20454;-61
2021/05/25 11:16:14;;;;;;;0.52;0.40;;;18.70;48.50;;;17.59;100.00;100026.13;4994906;28;20218;-62
2021/05/25 11:18:45;;;;;;;0.68;0.52;;;18.90;47.90;;;17.46;100.00;100026.97;5010833;28;20626;-61
2021/05/25 11:22:04;;;;;;;1.67;0.40;;;18.90;48.20;;;17.20;100.00;100026.97;5009526;28;20218;-60
2021/05/25 11:24:33;;;;;;;1.75;0.40;;;18.80;47.70;;;16.99;100.00;100024.47;5010248;28;21037;-61
2021/05/25 11:27:05;;;;;;;0.77;0.30;;;18.60;47.50;;;17.41;100.00;100017.84;5008828;28;20308;-61
2021/05/25 11:29:34;;;;;;;1.58;0.47;;;18.50;48.70;;;18.36;100.00;100029.94;5009623;28;20587;-61
2021/05/25 11:32:13;;;;;;;0.65;0.40;;;18.60;49.20;;;17.83;98.16;100030.91;5009591;28;20261;-61
2021/05/25 11:34:41;;;;;;;1.80;0.47;;;19.10;48.30;;;18.07;99.65;100023.97;5009089;28;20635;-62
2021/05/25 11:37:09;;;;;;;0.40;0.32;;;19.30;47.60;;;18.17;93.56;100028.97;5009551;28;20222;-62
2021/05/25 11:39:36;;;;;;;0.32;0.30;;;19.50;46.50;;;17.29;98.36;100022.22;5008421;28;20557;-62
2021/05/25 11:42:05;;;;;;;0.85;0.40;;;19.60;45.10;;;17.48;100.00;100024.06;5009830;28;20218;-61
2021/05/25 11:44:37;;;;;;;1.00;0.20;;;19.40;45.50;;;17.45;97.16;100013.66;5009612;28;20895;-62
2021/05/25 11:47:06;;;;;;;1.98;0.30;;;19.40;45.80;;;17.38;100.00;100016.38;5008412;28;20768;-61
2021/05/25 11:49:39;;;;;;;0.68;0.30;;;19.20;46.10;;;18.21;91.40;100008.53;5003112;28;20551;-62
2021/05/25 11:52:24;;;;;;;0.85;0.40;;;19.20;46.70;;;18.34;90.51;100013.06;5009415;28;20226;-62
2021/05/25 11:54:53;;;;;;;0.43;0.38;;;19.50;45.70;;;17.98;88.40;100013.59;5009537;28;20237;-62
2021/05/25 11:57:38;;;;;;;0.90;0.35;;;19.70;44.60;;;18.40;85.36;100015.75;5009014;28;20540;-62
2021/05/25 12:00:10;;;;;;;0.40;0.30;;;19.80;44.50;;;18.25;81.29;99971.84;5009283;28;20218;-62
2021/05/25 12:02:41;;;;;;;0.75;0.28;;;19.90;44.20;;;17.77;81.12;100003.88;5007658;28;20377;-61
2021/05/25 12:05:15;;;;;;;0.40;0.20;;;20.00;42.90;;;17.78;86.21;99995.56;5008960;28;20212;-61
2021/05/25 12:07:44;;;;;;;0.35;0.30;;;19.80;42.80;;;17.95;82.29;99977.78;5008700;28;20230;-61
2021/05/25 12:10:14;;;;;;;0.93;0.10;;;19.70;42.80;;;18.41;75.21;99987.63;5009118;28;20206;-62
2021/05/25 12:12:42;;;;;;;0.55;0.20;;;19.80;42.40;;;18.49;68.38;99987.34;5008869;28;20619;-62
2021/05/25 19:46:09;;;;;;;0.50;0.50;;;10.80;99.90;;;12.00;100.00;100266.81;4763845;29;21062;-59
2021/05/25 19:57:25;;;;;;;1.07;0.60;;;10.80;99.90;;;11.82;100.00;100268.81;4779825;29;20817;-61
2021/05/25 20:00:38;;;;;;;2.30;0.67;;;10.80;99.90;;;11.75;100.00;100265.09;4806436;29;20225;-61
2021/05/25 21:08:25;;;;;;;1.63;0.60;;;10.10;99.90;;;11.04;100.00;100308.44;4811122;29;20241;-61
2021/05/25 21:11:36;;;;;;;0.70;0.43;;;10.20;99.90;;;11.08;100.00;100316.00;4882649;29;20226;-61
2021/05/25 21:14:47;;;;;;;1.50;0.60;;;10.10;99.90;;;11.06;100.00;100311.78;4930086;28;20267;-61
2021/05/25 21:21:47;;;;;;;0.67;0.60;;;10.10;99.90;;;11.05;100.00;100324.34;4925699;28;20488;-60
2021/05/25 21:32:29;;;;;;;2.20;0.60;;;10.20;99.90;;;10.99;100.00;100308.09;4982941;28;21004;-59
2021/05/25 21:35:41;;;;;;;1.10;0.70;;;10.20;99.90;;;11.06;100.00;100301.91;4987608;28;20519;-60
2021/05/25 21:38:53;;;;;;;1.00;0.57;;;10.20;99.90;;;10.99;100.00;100313.44;4984511;28;20458;-60
2021/05/25 21:42:34;;;;;;;2.03;0.70;;;10.10;99.90;;;10.95;100.00;100309.41;4985460;28;20606;-61
2021/05/25 21:45:46;;;;;;;1.43;0.80;;;10.10;99.90;;;10.89;100.00;100300.16;4903376;28;20785;-59
2021/05/25 21:49:00;;;;;;;1.07;0.60;;;10.00;99.90;;;10.95;100.00;100299.53;4906846;28;20284;-60
2021/05/25 21:52:11;;;;;;;1.13;0.60;;;9.90;99.90;;;10.89;100.00;100299.31;4980229;28;20750;-60
2021/05/25 21:55:22;;;;;;;0.73;0.60;;;9.90;99.90;;;10.86;100.00;100300.50;4978382;28;21058;-60
2021/05/25 22:02:02;;;;;;;1.40;0.67;;;9.90;99.90;;;10.88;100.00;100301.16;4972813;28;20238;-60
2021/05/25 22:15:48;;;;;;;1.20;0.70;;;9.70;99.90;;;10.67;100.00;100292.69;5001307;28;20509;-62
2021/05/25 22:19:06;;;;;;;0.73;0.60;;;9.70;99.90;;;10.63;100.00;100280.63;5009305;28;20343;-60
2021/05/25 22:22:17;;;;;;;1.17;0.60;;;9.70;99.90;;;10.66;100.00;100280.28;5006242;28;20718;-59
2021/05/25 22:25:40;;;;;;;2.17;1.00;;;9.70;99.90;;;10.66;100.00;100274.94;5007373;28;20253;-60
2021/05/25 22:36:28;;;;;;;2.67;1.17;;;9.80;99.90;;;10.89;100.00;100262.69;5008594;28;20490;-60
2021/05/25 22:39:45;;;;;;;2.47;0.70;;;9.90;99.90;;;10.87;100.00;100262.03;5009433;28;20474;-59
2021/05/25 22:46:21;;;;;;;1.63;1.03;;;9.90;99.90;;;10.87;100.00;100250.47;5004429;28;20222;-60
2021/05/25 22:49:39;;;;;;;9.50;1.30;;;9.90;99.90;;;10.90;100.00;100258.16;5005640;28;20472;-61
2021/05/25 22:52:52;;;;;;;4.40;1.23;;;9.90;99.90;;;10.85;100.00;100253.31;4995428;28;20604;-61
2021/05/25 22:56:03;;;;;;;3.40;1.17;;;9.90;99.90;;;10.92;100.00;100250.81;4988897;28;20402;-61
2021/05/25 22:59:14;;;;;;;2.23;0.87;;;10.00;99.90;;;10.96;100.00;100253.03;4990407;28;20222;-61
2021/05/25 23:13:06;;;;;;;2.07;0.90;;;9.90;99.90;;;10.72;100.00;100235.03;4946629;28;20628;-60
2021/05/25 23:16:17;;;;;;;1.50;0.80;;;9.80;99.90;;;10.70;100.00;100247.72;4959495;28;20776;-61
2021/05/25 23:19:30;;;;;;;1.77;0.90;;;9.70;99.90;;;10.63;100.00;100243.19;4960475;28;20231;-61
2021/05/25 23:26:44;;;;;;;1.83;0.83;;;9.60;99.90;;;10.61;100.00;100240.66;4882019;29;20308;-61
2021/05/25 23:29:56;;;;;;;1.40;0.77;;;9.60;99.90;;;10.62;100.00;100230.78;4965718;28;20259;-61
2021/05/25 23:33:09;;;;;;;2.13;0.80;;;9.50;99.90;;;10.55;100.00;100238.59;4967049;28;20615;-60
2021/05/25 23:36:20;;;;;;;1.70;0.80;;;9.50;99.90;;;10.55;100.00;100243.13;4981986;28;20514;-60
2021/05/25 23:39:32;;;;;;;2.57;0.53;;;9.50;99.90;;;10.50;100.00;100240.94;5009432;28;20311;-61
2021/05/25 23:42:45;;;;;;;1.63;0.80;;;9.50;99.90;;;10.51;100.00;100231.06;4991083;28;20277;-60
2021/05/25 23:46:05;;;;;;;1.43;0.67;;;9.40;99.90;;;10.52;100.00;100238.06;5006269;28;20967;-61
2021/05/25 23:49:17;;;;;;;0.70;0.70;;;9.40;99.90;;;10.47;100.00;100229.69;5007794;28;20574;-61
2021/05/25 23:52:28;;;;;;;1.00;0.63;;;9.40;99.90;;;10.50;100.00;100234.75;4994706;28;20549;-60
2021/05/25 23:55:39;;;;;;;3.03;0.90;;;9.40;99.90;;;10.51;100.00;100239.91;5009406;28;20321;-59
2021/05/25 23:59:04;;;;;;;1.63;0.70;;;9.50;99.90;;;10.57;100.00;100241.13;5007217;28;20222;-61
